sensor_id;sensor_type;location;lat;lon;timestamp;temperature;humidity
35129;DHT22;21301;43.626;10.580;2023-05-29T00:00:21;18.20;99.90
35129;DHT22;21301;43.626;10.580;2023-05-29T00:02:47;18.20;99.90
35129;DHT22;21301;43.626;10.580;2023-05-29T00:05:14;18.10;99.90
35129;DHT22;21301;43.626;10.580;2023-05-29T00:07:40;18.10;99.90
35129;DHT22;21301;43.626;10.580;2023-05-29T00:10:08;18.10;99.90
35129;DHT22;21301;43.626;10.580;2023-05-29T00:12:34;18.00;99.90
35129;DHT22;21301;43.626;10.580;2023-05-29T00:15:00;18.00;99.90
35129;DHT22;21301;43.626;10.580;2023-05-29T00:17:26;18.00;99.90
35129;DHT22;21301;43.626;10.580;2023-05-29T00:19:52;18.00;99.90
35129;DHT22;21301;43.626;10.580;2023-05-29T00:22:18;18.00;99.90
35129;DHT22;21301;43.626;10.580;2023-05-29T00:24:44;18.00;99.90
35129;DHT22;21301;43.626;10.580;2023-05-29T00:27:10;18.00;99.90
35129;DHT22;21301;43.626;10.580;2023-05-29T00:29:37;18.20;99.90
35129;DHT22;21301;43.626;10.580;2023-05-29T00:32:06;18.20;99.90
35129;DHT22;21301;43.626;10.580;2023-05-29T00:34:32;18.30;99.90
35129;DHT22;21301;43.626;10.580;2023-05-29T00:36:58;18.40;99.90
35129;DHT22;21301;43.626;10.580;2023-05-29T00:39:24;18.30;99.90
35129;DHT22;21301;43.626;10.580;2023-05-29T00:41:50;18.50;99.90
35129;DHT22;21301;43.626;10.580;2023-05-29T00:44:21;18.50;99.90
35129;DHT22;21301;43.626;10.580;2023-05-29T00:46:48;18.50;99.90
35129;DHT22;21301;43.626;10.580;2023-05-29T00:49:16;18.90;99.90
35129;DHT22;21301;43.626;10.580;2023-05-29T00:51:43;19.10;99.90
35129;DHT22;21301;43.626;10.580;2023-05-29T00:54:12;19.20;99.90
35129;DHT22;21301;43.626;10.580;2023-05-29T00:56:41;19.20;99.90
35129;DHT22;21301;43.626;10.580;2023-05-29T00:59:11;19.20;99.90
35129;DHT22;21301;43.626;10.580;2023-05-29T01:01:38;19.40;99.90
35129;DHT22;21301;43.626;10.580;2023-05-29T01:04:06;19.40;99.90
35129;DHT22;21301;43.626;10.580;2023-05-29T01:06:32;19.20;99.90
35129;DHT22;21301;43.626;10.580;2023-05-29T01:08:58;19.00;99.90
35129;DHT22;21301;43.626;10.580;2023-05-29T01:14:05;18.90;99.90
35129;DHT22;21301;43.626;10.580;2023-05-29T01:16:42;18.70;99.90
35129;DHT22;21301;43.626;10.580;2023-05-29T01:22:32;18.50;99.90
35129;DHT22;21301;43.626;10.580;2023-05-29T01:27:46;18.30;99.90
35129;DHT22;21301;43.626;10.580;2023-05-29T01:30:15;18.40;99.90
35129;DHT22;21301;43.626;10.580;2023-05-29T01:32:41;18.20;99.90
35129;DHT22;21301;43.626;10.580;2023-05-29T01:35:08;18.20;99.90
35129;DHT22;21301;43.626;10.580;2023-05-29T01:37:35;18.30;99.90
35129;DHT22;21301;43.626;10.580;2023-05-29T01:40:01;18.20;99.90
35129;DHT22;21301;43.626;10.580;2023-05-29T01:42:29;18.00;99.90
35129;DHT22;21301;43.626;10.580;2023-05-29T01:44:57;18.10;99.90
35129;DHT22;21301;43.626;10.580;2023-05-29T01:47:23;18.20;99.90
35129;DHT22;21301;43.626;10.580;2023-05-29T01:49:51;18.10;99.90
35129;DHT22;21301;43.626;10.580;2023-05-29T01:52:17;18.10;99.90
35129;DHT22;21301;43.626;10.580;2023-05-29T01:54:44;18.00;99.90
35129;DHT22;21301;43.626;10.580;2023-05-29T01:57:11;17.90;99.90
35129;DHT22;21301;43.626;10.580;2023-05-29T01:59:37;17.80;99.90
35129;DHT22;21301;43.626;10.580;2023-05-29T02:02:10;17.80;99.90
35129;DHT22;21301;43.626;10.580;2023-05-29T02:04:37;17.90;99.90
35129;DHT22;21301;43.626;10.580;2023-05-29T02:07:04;17.90;99.90
35129;DHT22;21301;43.626;10.580;2023-05-29T02:09:30;18.00;99.90
35129;DHT22;21301;43.626;10.580;2023-05-29T02:11:56;18.10;99.90
35129;DHT22;21301;43.626;10.580;2023-05-29T02:14:22;18.10;99.90
35129;DHT22;21301;43.626;10.580;2023-05-29T02:16:51;18.00;99.90
35129;DHT22;21301;43.626;10.580;2023-05-29T02:19:18;18.10;99.90
35129;DHT22;21301;43.626;10.580;2023-05-29T02:21:44;18.00;99.90
35129;DHT22;21301;43.626;10.580;2023-05-29T02:24:09;17.90;99.90
35129;DHT22;21301;43.626;10.580;2023-05-29T02:26:35;17.70;99.90
35129;DHT22;21301;43.626;10.580;2023-05-29T02:29:04;17.70;99.90
35129;DHT22;21301;43.626;10.580;2023-05-29T02:31:32;17.80;99.90
35129;DHT22;21301;43.626;10.580;2023-05-29T02:33:58;17.70;99.90
35129;DHT22;21301;43.626;10.580;2023-05-29T02:36:24;17.80;99.90
35129;DHT22;21301;43.626;10.580;2023-05-29T02:38:50;17.80;99.90
35129;DHT22;21301;43.626;10.580;2023-05-29T02:41:16;17.90;99.90
35129;DHT22;21301;43.626;10.580;2023-05-29T02:43:42;18.00;99.90
35129;DHT22;21301;43.626;10.580;2023-05-29T02:46:08;18.00;99.90
35129;DHT22;21301;43.626;10.580;2023-05-29T02:48:34;18.10;99.90
35129;DHT22;21301;43.626;10.580;2023-05-29T02:50:59;18.30;99.90
35129;DHT22;21301;43.626;10.580;2023-05-29T02:53:25;18.40;99.90
35129;DHT22;21301;43.626;10.580;2023-05-29T02:55:51;18.30;99.90
35129;DHT22;21301;43.626;10.580;2023-05-29T02:58:17;18.40;99.90
35129;DHT22;21301;43.626;10.580;2023-05-29T03:00:43;18.30;99.90
35129;DHT22;21301;43.626;10.580;2023-05-29T03:03:08;18.20;99.90
35129;DHT22;21301;43.626;10.580;2023-05-29T03:05:38;18.00;99.90
35129;DHT22;21301;43.626;10.580;2023-05-29T03:08:04;18.00;99.90
35129;DHT22;21301;43.626;10.580;2023-05-29T03:10:29;17.80;99.90
35129;DHT22;21301;43.626;10.580;2023-05-29T03:12:55;17.70;99.90
35129;DHT22;21301;43.626;10.580;2023-05-29T03:15:21;17.70;99.90
35129;DHT22;21301;43.626;10.580;2023-05-29T03:17:47;17.70;99.90
35129;DHT22;21301;43.626;10.580;2023-05-29T03:20:16;17.70;99.90
35129;DHT22;21301;43.626;10.580;2023-05-29T03:22:43;17.60;99.90
35129;DHT22;21301;43.626;10.580;2023-05-29T03:25:09;17.40;99.90
35129;DHT22;21301;43.626;10.580;2023-05-29T03:27:35;17.20;99.90
35129;DHT22;21301;43.626;10.580;2023-05-29T03:30:08;17.10;99.90
35129;DHT22;21301;43.626;10.580;2023-05-29T03:32:35;17.20;99.90
35129;DHT22;21301;43.626;10.580;2023-05-29T03:35:01;17.30;99.90
35129;DHT22;21301;43.626;10.580;2023-05-29T03:37:30;17.40;99.90
35129;DHT22;21301;43.626;10.580;2023-05-29T03:39:56;17.50;99.90
35129;DHT22;21301;43.626;10.580;2023-05-29T03:42:23;17.30;99.90
35129;DHT22;21301;43.626;10.580;2023-05-29T03:44:50;17.20;99.90
35129;DHT22;21301;43.626;10.580;2023-05-29T03:47:16;17.20;99.90
35129;DHT22;21301;43.626;10.580;2023-05-29T03:49:42;17.00;99.90
35129;DHT22;21301;43.626;10.580;2023-05-29T03:52:07;17.00;99.90
35129;DHT22;21301;43.626;10.580;2023-05-29T03:54:33;17.10;99.90
35129;DHT22;21301;43.626;10.580;2023-05-29T03:57:01;17.00;99.90
35129;DHT22;21301;43.626;10.580;2023-05-29T03:59:27;17.10;99.90
35129;DHT22;21301;43.626;10.580;2023-05-29T04:01:53;17.10;99.90
35129;DHT22;21301;43.626;10.580;2023-05-29T04:04:20;17.10;99.90
35129;DHT22;21301;43.626;10.580;2023-05-29T04:06:45;17.20;99.90
35129;DHT22;21301;43.626;10.580;2023-05-29T04:09:11;17.10;99.90
35129;DHT22;21301;43.626;10.580;2023-05-29T04:11:37;17.00;99.90
35129;DHT22;21301;43.626;10.580;2023-05-29T04:14:04;17.00;99.90
35129;DHT22;21301;43.626;10.580;2023-05-29T04:16:30;17.00;99.90
35129;DHT22;21301;43.626;10.580;2023-05-29T04:18:56;16.90;99.90
35129;DHT22;21301;43.626;10.580;2023-05-29T04:21:25;17.10;99.90
35129;DHT22;21301;43.626;10.580;2023-05-29T04:23:52;17.10;99.90
35129;DHT22;21301;43.626;10.580;2023-05-29T04:26:22;17.10;99.90
35129;DHT22;21301;43.626;10.580;2023-05-29T04:28:52;17.10;99.90
35129;DHT22;21301;43.626;10.580;2023-05-29T04:31:26;17.30;99.90
35129;DHT22;21301;43.626;10.580;2023-05-29T04:33:53;17.60;99.90
35129;DHT22;21301;43.626;10.580;2023-05-29T04:36:24;17.90;99.90
35129;DHT22;21301;43.626;10.580;2023-05-29T04:38:55;18.10;99.90
35129;DHT22;21301;43.626;10.580;2023-05-29T04:41:22;18.00;99.90
35129;DHT22;21301;43.626;10.580;2023-05-29T04:43:55;18.00;99.90
35129;DHT22;21301;43.626;10.580;2023-05-29T04:46:24;18.00;99.90
35129;DHT22;21301;43.626;10.580;2023-05-29T04:48:51;18.40;99.90
35129;DHT22;21301;43.626;10.580;2023-05-29T04:51:20;18.30;99.90
35129;DHT22;21301;43.626;10.580;2023-05-29T04:53:48;18.50;99.90
35129;DHT22;21301;43.626;10.580;2023-05-29T04:56:14;18.60;99.90
35129;DHT22;21301;43.626;10.580;2023-05-29T04:58:41;18.90;99.90
35129;DHT22;21301;43.626;10.580;2023-05-29T05:01:08;19.10;99.90
35129;DHT22;21301;43.626;10.580;2023-05-29T05:03:36;19.00;99.90
35129;DHT22;21301;43.626;10.580;2023-05-29T05:06:03;19.20;99.90
35129;DHT22;21301;43.626;10.580;2023-05-29T05:08:31;18.90;99.90
35129;DHT22;21301;43.626;10.580;2023-05-29T05:10:59;18.80;99.90
35129;DHT22;21301;43.626;10.580;2023-05-29T05:13:26;18.90;99.90
35129;DHT22;21301;43.626;10.580;2023-05-29T05:15:53;19.30;99.90
35129;DHT22;21301;43.626;10.580;2023-05-29T05:18:19;19.40;99.90
35129;DHT22;21301;43.626;10.580;2023-05-29T05:20:52;19.40;99.90
35129;DHT22;21301;43.626;10.580;2023-05-29T05:23:18;19.40;99.90
35129;DHT22;21301;43.626;10.580;2023-05-29T05:25:44;19.60;99.90
35129;DHT22;21301;43.626;10.580;2023-05-29T05:28:10;19.50;99.90
35129;DHT22;21301;43.626;10.580;2023-05-29T05:30:35;19.50;99.90
35129;DHT22;21301;43.626;10.580;2023-05-29T05:33:02;19.60;99.90
35129;DHT22;21301;43.626;10.580;2023-05-29T05:35:28;19.80;99.90
35129;DHT22;21301;43.626;10.580;2023-05-29T05:37:53;20.00;99.90
35129;DHT22;21301;43.626;10.580;2023-05-29T05:40:20;20.40;99.90
35129;DHT22;21301;43.626;10.580;2023-05-29T05:42:55;20.50;99.90
35129;DHT22;21301;43.626;10.580;2023-05-29T05:45:32;20.60;99.90
35129;DHT22;21301;43.626;10.580;2023-05-29T05:47:59;20.80;99.90
35129;DHT22;21301;43.626;10.580;2023-05-29T05:50:26;20.90;99.90
35129;DHT22;21301;43.626;10.580;2023-05-29T05:52:52;21.00;99.90
35129;DHT22;21301;43.626;10.580;2023-05-29T05:55:18;21.00;99.90
35129;DHT22;21301;43.626;10.580;2023-05-29T05:57:44;21.20;99.90
35129;DHT22;21301;43.626;10.580;2023-05-29T06:00:10;21.40;99.90
35129;DHT22;21301;43.626;10.580;2023-05-29T06:02:42;21.70;99.90
35129;DHT22;21301;43.626;10.580;2023-05-29T06:05:13;21.90;99.90
35129;DHT22;21301;43.626;10.580;2023-05-29T06:07:40;22.20;99.90
35129;DHT22;21301;43.626;10.580;2023-05-29T06:10:07;22.30;99.90
35129;DHT22;21301;43.626;10.580;2023-05-29T06:12:33;22.50;99.90
35129;DHT22;21301;43.626;10.580;2023-05-29T06:15:09;22.70;99.90
35129;DHT22;21301;43.626;10.580;2023-05-29T06:17:34;23.00;99.90
35129;DHT22;21301;43.626;10.580;2023-05-29T06:20:02;23.10;99.90
35129;DHT22;21301;43.626;10.580;2023-05-29T06:22:31;23.30;99.90
35129;DHT22;21301;43.626;10.580;2023-05-29T06:24:56;23.30;99.90
35129;DHT22;21301;43.626;10.580;2023-05-29T06:27:23;23.30;99.90
35129;DHT22;21301;43.626;10.580;2023-05-29T06:29:51;23.90;99.90
35129;DHT22;21301;43.626;10.580;2023-05-29T06:32:17;24.00;99.90
35129;DHT22;21301;43.626;10.580;2023-05-29T06:34:43;24.20;99.90
35129;DHT22;21301;43.626;10.580;2023-05-29T06:37:09;24.20;99.90
35129;DHT22;21301;43.626;10.580;2023-05-29T06:39:35;24.40;99.90
35129;DHT22;21301;43.626;10.580;2023-05-29T06:42:01;24.30;99.90
35129;DHT22;21301;43.626;10.580;2023-05-29T06:44:27;24.20;99.90
35129;DHT22;21301;43.626;10.580;2023-05-29T06:46:53;24.20;99.90
35129;DHT22;21301;43.626;10.580;2023-05-29T06:49:20;24.10;99.90
35129;DHT22;21301;43.626;10.580;2023-05-29T06:51:45;24.50;99.90
35129;DHT22;21301;43.626;10.580;2023-05-29T06:54:23;24.70;99.90
35129;DHT22;21301;43.626;10.580;2023-05-29T06:56:49;25.10;99.90
35129;DHT22;21301;43.626;10.580;2023-05-29T06:59:15;24.90;99.90
35129;DHT22;21301;43.626;10.580;2023-05-29T07:01:41;25.00;99.90
35129;DHT22;21301;43.626;10.580;2023-05-29T07:04:07;24.90;99.90
35129;DHT22;21301;43.626;10.580;2023-05-29T07:06:33;25.20;99.90
35129;DHT22;21301;43.626;10.580;2023-05-29T07:09:00;25.40;99.90
35129;DHT22;21301;43.626;10.580;2023-05-29T07:11:25;25.90;99.90
35129;DHT22;21301;43.626;10.580;2023-05-29T07:13:53;26.30;99.90
35129;DHT22;21301;43.626;10.580;2023-05-29T07:16:20;25.80;99.90
35129;DHT22;21301;43.626;10.580;2023-05-29T07:18:46;25.90;99.90
35129;DHT22;21301;43.626;10.580;2023-05-29T07:21:12;26.10;99.90
35129;DHT22;21301;43.626;10.580;2023-05-29T07:23:38;26.30;99.90
35129;DHT22;21301;43.626;10.580;2023-05-29T07:26:04;26.70;99.90
35129;DHT22;21301;43.626;10.580;2023-05-29T07:28:30;26.90;99.90
35129;DHT22;21301;43.626;10.580;2023-05-29T07:30:56;26.60;99.90
35129;DHT22;21301;43.626;10.580;2023-05-29T07:33:23;26.70;99.90
35129;DHT22;21301;43.626;10.580;2023-05-29T07:35:49;26.60;99.90
35129;DHT22;21301;43.626;10.580;2023-05-29T07:38:15;26.80;99.90
35129;DHT22;21301;43.626;10.580;2023-05-29T07:40:42;27.10;99.90
35129;DHT22;21301;43.626;10.580;2023-05-29T07:43:30;26.80;99.90
35129;DHT22;21301;43.626;10.580;2023-05-29T07:46:03;27.20;99.90
35129;DHT22;21301;43.626;10.580;2023-05-29T07:48:29;27.60;99.90
35129;DHT22;21301;43.626;10.580;2023-05-29T07:50:56;28.10;99.90
35129;DHT22;21301;43.626;10.580;2023-05-29T07:53:24;27.40;99.20
35129;DHT22;21301;43.626;10.580;2023-05-29T07:55:50;27.40;99.50
35129;DHT22;21301;43.626;10.580;2023-05-29T07:58:16;27.40;99.30
35129;DHT22;21301;43.626;10.580;2023-05-29T08:00:44;27.50;99.40
35129;DHT22;21301;43.626;10.580;2023-05-29T08:03:09;27.20;99.00
35129;DHT22;21301;43.626;10.580;2023-05-29T08:05:53;27.30;99.20
35129;DHT22;21301;43.626;10.580;2023-05-29T08:08:21;27.30;99.20
35129;DHT22;21301;43.626;10.580;2023-05-29T08:10:46;27.60;99.30
35129;DHT22;21301;43.626;10.580;2023-05-29T08:13:12;27.20;98.90
35129;DHT22;21301;43.626;10.580;2023-05-29T08:15:39;27.30;99.00
35129;DHT22;21301;43.626;10.580;2023-05-29T08:18:05;27.40;99.20
35129;DHT22;21301;43.626;10.580;2023-05-29T08:20:31;27.40;98.90
35129;DHT22;21301;43.626;10.580;2023-05-29T08:22:56;27.50;98.90
35129;DHT22;21301;43.626;10.580;2023-05-29T08:25:22;27.40;98.50
35129;DHT22;21301;43.626;10.580;2023-05-29T08:27:48;27.40;98.80
35129;DHT22;21301;43.626;10.580;2023-05-29T08:30:14;27.40;98.30
35129;DHT22;21301;43.626;10.580;2023-05-29T08:32:39;27.40;98.40
35129;DHT22;21301;43.626;10.580;2023-05-29T08:35:05;27.40;98.50
35129;DHT22;21301;43.626;10.580;2023-05-29T08:37:31;27.40;98.30
35129;DHT22;21301;43.626;10.580;2023-05-29T08:39:57;27.50;98.30
35129;DHT22;21301;43.626;10.580;2023-05-29T08:42:29;27.40;98.30
35129;DHT22;21301;43.626;10.580;2023-05-29T08:45:02;27.50;98.20
35129;DHT22;21301;43.626;10.580;2023-05-29T08:47:34;27.60;98.70
35129;DHT22;21301;43.626;10.580;2023-05-29T08:50:01;27.90;98.40
35129;DHT22;21301;43.626;10.580;2023-05-29T08:52:30;27.80;98.00
35129;DHT22;21301;43.626;10.580;2023-05-29T08:54:58;27.70;98.10
35129;DHT22;21301;43.626;10.580;2023-05-29T08:57:28;27.90;98.30
35129;DHT22;21301;43.626;10.580;2023-05-29T08:59:55;28.30;97.50
35129;DHT22;21301;43.626;10.580;2023-05-29T09:02:21;28.80;97.60
35129;DHT22;21301;43.626;10.580;2023-05-29T09:04:47;28.90;96.90
35129;DHT22;21301;43.626;10.580;2023-05-29T09:07:17;29.30;96.70
35129;DHT22;21301;43.626;10.580;2023-05-29T09:09:47;29.70;96.20
35129;DHT22;21301;43.626;10.580;2023-05-29T09:12:16;29.90;95.70
35129;DHT22;21301;43.626;10.580;2023-05-29T09:14:43;29.70;96.10
35129;DHT22;21301;43.626;10.580;2023-05-29T09:17:11;30.10;95.70
35129;DHT22;21301;43.626;10.580;2023-05-29T09:19:38;30.70;95.30
35129;DHT22;21301;43.626;10.580;2023-05-29T09:22:09;30.30;95.20
35129;DHT22;21301;43.626;10.580;2023-05-29T09:24:37;30.40;95.00
35129;DHT22;21301;43.626;10.580;2023-05-29T09:27:04;30.90;95.00
35129;DHT22;21301;43.626;10.580;2023-05-29T09:29:48;30.90;94.30
35129;DHT22;21301;43.626;10.580;2023-05-29T09:32:15;30.30;93.50
35129;DHT22;21301;43.626;10.580;2023-05-29T09:34:43;30.60;94.70
35129;DHT22;21301;43.626;10.580;2023-05-29T09:37:10;31.00;94.30
35129;DHT22;21301;43.626;10.580;2023-05-29T09:39:47;30.40;93.70
35129;DHT22;21301;43.626;10.580;2023-05-29T09:42:14;30.60;93.40
35129;DHT22;21301;43.626;10.580;2023-05-29T09:44:45;30.30;93.80
35129;DHT22;21301;43.626;10.580;2023-05-29T09:47:18;30.20;93.40
35129;DHT22;21301;43.626;10.580;2023-05-29T09:49:44;30.70;93.70
35129;DHT22;21301;43.626;10.580;2023-05-29T09:52:12;30.30;93.30
35129;DHT22;21301;43.626;10.580;2023-05-29T09:54:41;30.30;93.90
35129;DHT22;21301;43.626;10.580;2023-05-29T09:57:14;30.70;93.60
35129;DHT22;21301;43.626;10.580;2023-05-29T09:59:43;30.50;93.70
35129;DHT22;21301;43.626;10.580;2023-05-29T10:02:11;30.60;93.20
35129;DHT22;21301;43.626;10.580;2023-05-29T10:04:39;30.40;93.20
35129;DHT22;21301;43.626;10.580;2023-05-29T10:09:53;30.70;91.90
35129;DHT22;21301;43.626;10.580;2023-05-29T10:12:21;30.80;93.10
35129;DHT22;21301;43.626;10.580;2023-05-29T10:14:49;31.10;92.90
35129;DHT22;21301;43.626;10.580;2023-05-29T10:17:17;31.40;92.80
35129;DHT22;21301;43.626;10.580;2023-05-29T10:19:45;31.10;92.60
35129;DHT22;21301;43.626;10.580;2023-05-29T10:22:13;31.50;92.50
35129;DHT22;21301;43.626;10.580;2023-05-29T10:24:40;31.50;92.40
35129;DHT22;21301;43.626;10.580;2023-05-29T10:27:07;31.30;92.60
35129;DHT22;21301;43.626;10.580;2023-05-29T10:32:32;31.40;91.40
35129;DHT22;21301;43.626;10.580;2023-05-29T10:35:12;31.60;90.40
35129;DHT22;21301;43.626;10.580;2023-05-29T10:37:51;31.50;91.60
35129;DHT22;21301;43.626;10.580;2023-05-29T10:40:23;31.70;91.70
35129;DHT22;21301;43.626;10.580;2023-05-29T10:42:50;32.00;92.00
35129;DHT22;21301;43.626;10.580;2023-05-29T10:50:47;30.50;92.10
35129;DHT22;21301;43.626;10.580;2023-05-29T10:53:18;30.40;92.20
35129;DHT22;21301;43.626;10.580;2023-05-29T10:55:45;30.70;92.10
35129;DHT22;21301;43.626;10.580;2023-05-29T10:58:24;31.00;91.50
35129;DHT22;21301;43.626;10.580;2023-05-29T11:00:52;30.70;89.70
35129;DHT22;21301;43.626;10.580;2023-05-29T11:03:24;30.70;90.30
35129;DHT22;21301;43.626;10.580;2023-05-29T11:06:00;31.00;89.80
35129;DHT22;21301;43.626;10.580;2023-05-29T11:08:34;31.00;88.70
35129;DHT22;21301;43.626;10.580;2023-05-29T11:11:01;31.20;89.20
35129;DHT22;21301;43.626;10.580;2023-05-29T11:13:35;31.30;90.30
35129;DHT22;21301;43.626;10.580;2023-05-29T11:18:43;31.40;88.30
35129;DHT22;21301;43.626;10.580;2023-05-29T11:24:27;30.70;89.80
35129;DHT22;21301;43.626;10.580;2023-05-29T11:26:55;30.90;87.00
35129;DHT22;21301;43.626;10.580;2023-05-29T11:29:22;31.10;89.10
35129;DHT22;21301;43.626;10.580;2023-05-29T11:31:54;31.30;87.80
35129;DHT22;21301;43.626;10.580;2023-05-29T11:34:22;31.80;87.60
35129;DHT22;21301;43.626;10.580;2023-05-29T11:36:50;31.30;89.20
35129;DHT22;21301;43.626;10.580;2023-05-29T11:39:16;31.10;88.50
35129;DHT22;21301;43.626;10.580;2023-05-29T11:41:42;30.80;87.90
35129;DHT22;21301;43.626;10.580;2023-05-29T11:44:08;31.10;88.10
35129;DHT22;21301;43.626;10.580;2023-05-29T11:46:34;30.70;88.00
35129;DHT22;21301;43.626;10.580;2023-05-29T11:49:00;30.30;88.60
35129;DHT22;21301;43.626;10.580;2023-05-29T11:51:27;30.30;89.50
35129;DHT22;21301;43.626;10.580;2023-05-29T11:53:53;29.80;89.60
35129;DHT22;21301;43.626;10.580;2023-05-29T11:56:24;29.90;88.80
35129;DHT22;21301;43.626;10.580;2023-05-29T11:58:51;29.90;88.50
35129;DHT22;21301;43.626;10.580;2023-05-29T12:01:21;29.80;88.80
35129;DHT22;21301;43.626;10.580;2023-05-29T12:03:46;29.80;88.00
35129;DHT22;21301;43.626;10.580;2023-05-29T12:06:12;30.30;88.20
35129;DHT22;21301;43.626;10.580;2023-05-29T12:08:39;30.70;88.30
35129;DHT22;21301;43.626;10.580;2023-05-29T12:11:05;31.00;87.50
35129;DHT22;21301;43.626;10.580;2023-05-29T12:13:31;31.10;87.90
35129;DHT22;21301;43.626;10.580;2023-05-29T12:15:59;30.80;88.30
35129;DHT22;21301;43.626;10.580;2023-05-29T12:18:27;30.30;88.70
35129;DHT22;21301;43.626;10.580;2023-05-29T12:21:03;29.80;87.50
35129;DHT22;21301;43.626;10.580;2023-05-29T12:23:29;29.90;87.60
35129;DHT22;21301;43.626;10.580;2023-05-29T12:25:56;30.20;88.80
35129;DHT22;21301;43.626;10.580;2023-05-29T12:28:23;30.60;88.60
35129;DHT22;21301;43.626;10.580;2023-05-29T12:30:50;30.10;88.30
35129;DHT22;21301;43.626;10.580;2023-05-29T12:33:29;29.80;88.00
35129;DHT22;21301;43.626;10.580;2023-05-29T12:36:05;30.10;88.40
35129;DHT22;21301;43.626;10.580;2023-05-29T12:38:33;29.90;87.10
35129;DHT22;21301;43.626;10.580;2023-05-29T12:40:58;30.10;88.60
35129;DHT22;21301;43.626;10.580;2023-05-29T12:43:24;30.30;89.00
35129;DHT22;21301;43.626;10.580;2023-05-29T12:45:56;30.30;88.90
35129;DHT22;21301;43.626;10.580;2023-05-29T12:48:27;30.10;89.30
35129;DHT22;21301;43.626;10.580;2023-05-29T12:50:53;30.00;88.50
35129;DHT22;21301;43.626;10.580;2023-05-29T12:53:19;29.60;89.80
35129;DHT22;21301;43.626;10.580;2023-05-29T12:55:46;29.80;89.50
35129;DHT22;21301;43.626;10.580;2023-05-29T12:58:14;29.80;89.50
35129;DHT22;21301;43.626;10.580;2023-05-29T13:00:46;29.60;88.80
35129;DHT22;21301;43.626;10.580;2023-05-29T13:03:12;29.60;89.10
35129;DHT22;21301;43.626;10.580;2023-05-29T13:05:38;29.40;89.00
35129;DHT22;21301;43.626;10.580;2023-05-29T13:08:04;29.40;88.50
35129;DHT22;21301;43.626;10.580;2023-05-29T13:10:32;29.50;87.60
35129;DHT22;21301;43.626;10.580;2023-05-29T13:13:00;29.70;87.50
35129;DHT22;21301;43.626;10.580;2023-05-29T13:15:26;30.00;88.40
35129;DHT22;21301;43.626;10.580;2023-05-29T13:17:52;30.00;88.30
35129;DHT22;21301;43.626;10.580;2023-05-29T13:20:19;30.10;88.40
35129;DHT22;21301;43.626;10.580;2023-05-29T13:22:46;30.00;87.20
35129;DHT22;21301;43.626;10.580;2023-05-29T13:25:15;30.00;87.40
35129;DHT22;21301;43.626;10.580;2023-05-29T13:27:43;30.10;87.50
35129;DHT22;21301;43.626;10.580;2023-05-29T13:30:10;30.30;88.10
35129;DHT22;21301;43.626;10.580;2023-05-29T13:32:36;30.30;88.40
35129;DHT22;21301;43.626;10.580;2023-05-29T13:35:02;30.10;88.00
35129;DHT22;21301;43.626;10.580;2023-05-29T13:37:29;29.80;87.70
35129;DHT22;21301;43.626;10.580;2023-05-29T13:39:55;29.80;88.30
35129;DHT22;21301;43.626;10.580;2023-05-29T13:42:21;29.90;88.70
35129;DHT22;21301;43.626;10.580;2023-05-29T13:44:48;30.00;89.70
35129;DHT22;21301;43.626;10.580;2023-05-29T13:47:14;30.10;88.50
35129;DHT22;21301;43.626;10.580;2023-05-29T13:49:40;29.50;87.30
35129;DHT22;21301;43.626;10.580;2023-05-29T13:52:06;29.30;88.30
35129;DHT22;21301;43.626;10.580;2023-05-29T13:54:32;29.30;89.00
35129;DHT22;21301;43.626;10.580;2023-05-29T13:57:02;29.30;88.50
35129;DHT22;21301;43.626;10.580;2023-05-29T13:59:29;29.30;88.10
35129;DHT22;21301;43.626;10.580;2023-05-29T14:01:55;29.50;87.90
35129;DHT22;21301;43.626;10.580;2023-05-29T14:04:21;29.40;87.80
35129;DHT22;21301;43.626;10.580;2023-05-29T14:06:47;29.30;87.90
35129;DHT22;21301;43.626;10.580;2023-05-29T14:09:13;29.70;88.00
35129;DHT22;21301;43.626;10.580;2023-05-29T14:11:39;29.60;88.10
35129;DHT22;21301;43.626;10.580;2023-05-29T14:14:06;29.40;88.10
35129;DHT22;21301;43.626;10.580;2023-05-29T14:16:32;29.50;88.50
35129;DHT22;21301;43.626;10.580;2023-05-29T14:18:59;29.80;88.80
35129;DHT22;21301;43.626;10.580;2023-05-29T14:21:25;30.10;88.40
35129;DHT22;21301;43.626;10.580;2023-05-29T14:23:51;30.30;88.10
35129;DHT22;21301;43.626;10.580;2023-05-29T14:26:17;30.10;90.30
35129;DHT22;21301;43.626;10.580;2023-05-29T14:28:44;30.10;91.70
35129;DHT22;21301;43.626;10.580;2023-05-29T14:31:09;30.10;92.10
35129;DHT22;21301;43.626;10.580;2023-05-29T14:33:35;29.90;92.30
35129;DHT22;21301;43.626;10.580;2023-05-29T14:36:02;29.80;92.50
35129;DHT22;21301;43.626;10.580;2023-05-29T14:38:28;29.90;92.90
35129;DHT22;21301;43.626;10.580;2023-05-29T14:40:54;28.90;93.10
35129;DHT22;21301;43.626;10.580;2023-05-29T14:43:20;28.10;93.50
35129;DHT22;21301;43.626;10.580;2023-05-29T14:45:46;27.70;93.70
35129;DHT22;21301;43.626;10.580;2023-05-29T14:48:11;28.00;93.70
35129;DHT22;21301;43.626;10.580;2023-05-29T14:50:37;27.90;93.60
35129;DHT22;21301;43.626;10.580;2023-05-29T14:53:03;27.90;93.80
35129;DHT22;21301;43.626;10.580;2023-05-29T14:55:29;28.60;93.90
35129;DHT22;21301;43.626;10.580;2023-05-29T14:58:06;28.70;93.80
35129;DHT22;21301;43.626;10.580;2023-05-29T15:00:31;28.30;93.70
35129;DHT22;21301;43.626;10.580;2023-05-29T15:02:57;28.00;94.10
35129;DHT22;21301;43.626;10.580;2023-05-29T15:05:26;27.90;93.80
35129;DHT22;21301;43.626;10.580;2023-05-29T15:07:52;27.70;94.10
35129;DHT22;21301;43.626;10.580;2023-05-29T15:10:20;28.00;94.20
35129;DHT22;21301;43.626;10.580;2023-05-29T15:12:46;28.10;94.10
35129;DHT22;21301;43.626;10.580;2023-05-29T15:15:12;27.80;94.00
35129;DHT22;21301;43.626;10.580;2023-05-29T15:17:38;27.80;94.20
35129;DHT22;21301;43.626;10.580;2023-05-29T15:20:05;27.50;94.20
35129;DHT22;21301;43.626;10.580;2023-05-29T15:22:31;27.30;94.30
35129;DHT22;21301;43.626;10.580;2023-05-29T15:24:57;27.20;95.10
35129;DHT22;21301;43.626;10.580;2023-05-29T15:27:23;27.30;94.70
35129;DHT22;21301;43.626;10.580;2023-05-29T15:29:52;27.40;94.70
35129;DHT22;21301;43.626;10.580;2023-05-29T15:32:18;27.80;94.50
35129;DHT22;21301;43.626;10.580;2023-05-29T15:34:44;27.80;93.80
35129;DHT22;21301;43.626;10.580;2023-05-29T15:37:09;28.30;93.90
35129;DHT22;21301;43.626;10.580;2023-05-29T15:39:35;27.90;93.70
35129;DHT22;21301;43.626;10.580;2023-05-29T15:42:03;27.80;94.00